Time,TemperatureF,DewpointF,PressureIn,WindDirection,WindDirectionDegrees,WindSpeedMPH,WindSpeedGustMPH,Humidity,HourlyPrecipIn,Conditions,Clouds,dailyrainin,SoftwareType,DateUTC
2013-03-29 00:00:00,45.0,34.3,30.34,SE,135,4.0,7.0,66,0.00,,,0.00,Weather View 32 v70,2013-03-29 05:00:00,
2013-03-29 00:05:00,44.9,34.2,30.34,ESE,112,4.0,7.0,66,0.00,,,0.00,Weather View 32 v70,2013-03-29 05:05:00,
2013-03-29 00:10:00,44.7,34.0,30.34,East,90,4.0,7.0,66,0.00,,,0.00,Weather View 32 v70,2013-03-29 05:10:00,
2013-03-29 00:15:00,44.5,34.2,30.34,East,90,3.0,7.0,67,0.00,,,0.00,Weather View 32 v70,2013-03-29 05:15:00,
2013-03-29 00:20:00,44.3,34.4,30.34,East,90,2.0,7.0,68,0.00,,,0.00,Weather View 32 v70,2013-03-29 05:20:00,
2013-03-29 00:25:00,44.2,34.3,30.34,ESE,112,2.0,7.0,68,0.00,,,0.00,Weather View 32 v70,2013-03-29 05:25:00,
2013-03-29 00:30:00,44.1,34.6,30.34,ESE,112,4.0,7.0,69,0.00,,,0.00,Weather View 32 v70,2013-03-29 05:30:00,
2013-03-29 00:35:00,43.8,34.3,30.34,East,90,2.0,7.0,69,0.00,,,0.00,Weather View 32 v70,2013-03-29 05:35:00,
2013-03-29 00:40:00,43.5,34.4,30.34,ESE,112,2.0,7.0,70,0.00,,,0.00,Weather View 32 v70,2013-03-29 05:40:00,
2013-03-29 00:45:00,43.1,34.3,30.34,ESE,112,2.0,7.0,71,0.00,,,0.00,Weather View 32 v70,2013-03-29 05:45:00,
2013-03-29 00:50:00,42.7,34.3,30.34,ESE,112,2.0,7.0,72,0.00,,,0.00,Weather View 32 v70,2013-03-29 05:50:00,
2013-03-29 00:55:00,42.5,34.1,30.34,ESE,112,4.0,7.0,72,0.00,,,0.00,Weather View 32 v70,2013-03-29 05:55:00,
2013-03-29 01:00:00,42.6,34.2,30.34,ESE,112,4.0,7.0,72,0.00,,,0.00,Weather View 32 v70,2013-03-29 06:00:00,
2013-03-29 01:05:00,42.8,34.4,30.34,ESE,112,5.0,7.0,72,0.00,,,0.00,Weather View 32 v70,2013-03-29 06:05:00,
2013-03-29 01:10:00,42.9,34.1,30.34,SE,135,2.0,7.0,71,0.00,,,0.00,Weather View 32 v70,2013-03-29 06:10:00,
2013-03-29 01:15:00,42.8,34.4,30.34,SE,135,4.0,7.0,72,0.00,,,0.00,Weather View 32 v70,2013-03-29 06:15:00,
2013-03-29 01:20:00,42.7,34.3,30.34,ESE,112,4.0,7.0,72,0.00,,,0.00,Weather View 32 v70,2013-03-29 06:20:00,
2013-03-29 01:25:00,42.6,34.2,30.34,ESE,112,3.0,7.0,72,0.00,,,0.00,Weather View 32 v70,2013-03-29 06:25:00,
2013-03-29 01:30:00,42.4,34.3,30.33,ESE,112,4.0,7.0,73,0.00,,,0.00,Weather View 32 v70,2013-03-29 06:30:00,
2013-03-29 01:35:00,42.2,34.2,30.33,East,90,2.0,7.0,73,0.00,,,0.00,Weather View 32 v70,2013-03-29 06:35:00,
2013-03-29 01:40:00,41.9,34.2,30.33,ESE,112,1.0,7.0,74,0.00,,,0.00,Weather View 32 v70,2013-03-29 06:40:00,
2013-03-29 01:45:00,41.8,34.1,30.33,SE,135,4.0,7.0,74,0.00,,,0.00,Weather View 32 v70,2013-03-29 06:45:00,
2013-03-29 01:50:00,41.9,34.2,30.34,ESE,112,3.0,7.0,74,0.00,,,0.00,Weather View 32 v70,2013-03-29 06:50:00,
2013-03-29 01:55:00,41.9,34.2,30.33,SE,135,2.0,7.0,74,0.00,,,0.00,Weather View 32 v70,2013-03-29 06:55:00,
2013-03-29 02:00:00,42.1,34.4,30.34,ESE,112,4.0,7.0,74,0.00,,,0.00,Weather View 32 v70,2013-03-29 07:00:00,
2013-03-29 02:07:00,42.1,34.4,30.33,ESE,112,3.0,7.0,74,0.00,,,0.00,Weather View 32 v70,2013-03-29 07:07:00,
2013-03-29 02:15:00,41.9,34.2,30.34,East,90,3.0,7.0,74,0.00,,,0.00,Weather View 32 v70,2013-03-29 07:15:00,
2013-03-29 02:20:00,41.8,34.5,30.34,ESE,112,2.0,7.0,75,0.00,,,0.00,Weather View 32 v70,2013-03-29 07:20:00,
2013-03-29 02:25:00,41.5,34.5,30.34,ESE,112,2.0,7.0,76,0.00,,,0.00,Weather View 32 v70,2013-03-29 07:25:00,
2013-03-29 02:32:00,41.4,34.4,30.33,ESE,112,3.0,7.0,76,0.00,,,0.00,Weather View 32 v70,2013-03-29 07:32:00,
2013-03-29 02:37:00,41.4,34.4,30.33,East,90,3.0,7.0,76,0.00,,,0.00,Weather View 32 v70,2013-03-29 07:37:00,
2013-03-29 02:42:00,41.3,34.3,30.33,ESE,112,4.0,7.0,76,0.00,,,0.00,Weather View 32 v70,2013-03-29 07:42:00,
2013-03-29 02:47:00,41.6,34.6,30.33,ESE,112,4.0,7.0,76,0.00,,,0.00,Weather View 32 v70,2013-03-29 07:47:00,
2013-03-29 02:52:00,41.8,34.5,30.33,East,90,3.0,7.0,75,0.00,,,0.00,Weather View 32 v70,2013-03-29 07:52:00,
2013-03-29 02:57:00,41.8,34.5,30.32,SE,135,4.0,7.0,75,0.00,,,0.00,Weather View 32 v70,2013-03-29 07:57:00,
2013-03-29 03:02:00,41.7,34.4,30.32,SE,135,4.0,8.0,75,0.00,,,0.00,Weather View 32 v70,2013-03-29 08:02:00,
2013-03-29 03:07:00,41.7,34.4,30.32,SE,135,4.0,8.0,75,0.00,,,0.00,Weather View 32 v70,2013-03-29 08:07:00,
2013-03-29 03:12:00,41.7,34.4,30.33,ESE,112,6.0,8.0,75,0.00,,,0.00,Weather View 32 v70,2013-03-29 08:12:00,
2013-03-29 03:17:00,41.4,34.1,30.33,SE,135,2.0,8.0,75,0.00,,,0.00,Weather View 32 v70,2013-03-29 08:17:00,
2013-03-29 03:22:00,41.2,34.2,30.33,ESE,112,5.0,8.0,76,0.00,,,0.00,Weather View 32 v70,2013-03-29 08:22:00,
2013-03-29 03:27:00,40.9,33.9,30.32,East,90,4.0,8.0,76,0.00,,,0.00,Weather View 32 v70,2013-03-29 08:27:00,
2013-03-29 03:32:00,40.9,33.9,30.32,East,90,4.0,8.0,76,0.00,,,0.00,Weather View 32 v70,2013-03-29 08:32:00,
2013-03-29 03:37:00,40.9,33.9,30.32,ESE,112,4.0,8.0,76,0.00,,,0.00,Weather View 32 v70,2013-03-29 08:37:00,
2013-03-29 03:42:00,40.8,34.1,30.32,East,90,3.0,8.0,77,0.00,,,0.00,Weather View 32 v70,2013-03-29 08:42:00,
2013-03-29 03:47:00,40.5,33.9,30.32,East,90,2.0,8.0,77,0.00,,,0.00,Weather View 32 v70,2013-03-29 08:47:00,
2013-03-29 03:52:00,40.3,34.0,30.32,ESE,112,4.0,8.0,78,0.00,,,0.00,Weather View 32 v70,2013-03-29 08:52:00,
2013-03-29 03:57:00,40.3,34.0,30.31,ESE,112,4.0,8.0,78,0.00,,,0.00,Weather View 32 v70,2013-03-29 08:57:00,
2013-03-29 04:02:00,40.2,33.9,30.31,ESE,112,4.0,7.0,78,0.00,,,0.00,Weather View 32 v70,2013-03-29 09:02:00,
2013-03-29 04:07:00,40.2,33.9,30.31,ESE,112,3.0,7.0,78,0.00,,,0.00,Weather View 32 v70,2013-03-29 09:07:00,
2013-03-29 04:12:00,40.1,33.8,30.31,ESE,112,4.0,7.0,78,0.00,,,0.00,Weather View 32 v70,2013-03-29 09:12:00,
2013-03-29 04:17:00,39.9,33.6,30.31,SE,135,2.0,7.0,78,0.00,,,0.00,Weather View 32 v70,2013-03-29 09:17:00,
2013-03-29 04:22:00,39.6,33.3,30.31,SE,135,0.0,7.0,78,0.00,,,0.00,Weather View 32 v70,2013-03-29 09:22:00,
2013-03-29 04:27:00,37.9,32.9,30.31,South,180,1.0,7.0,82,0.00,,,0.00,Weather View 32 v70,2013-03-29 09:27:00,
2013-03-29 04:32:00,36.6,32.5,30.31,South,180,1.0,7.0,85,0.00,,,0.00,Weather View 32 v70,2013-03-29 09:32:00,
2013-03-29 04:37:00,35.4,32.2,30.31,South,180,2.0,7.0,88,0.00,,,0.00,Weather View 32 v70,2013-03-29 09:37:00,
2013-03-29 04:42:00,34.6,31.4,30.31,South,180,2.0,7.0,88,0.00,,,0.00,Weather View 32 v70,2013-03-29 09:42:00,
2013-03-29 04:47:00,33.9,31.3,30.31,South,180,0.0,7.0,90,0.00,,,0.00,Weather View 32 v70,2013-03-29 09:47:00,
2013-03-29 04:52:00,33.6,31.3,30.31,South,180,0.0,7.0,91,0.00,,,0.00,Weather View 32 v70,2013-03-29 09:52:00,
2013-03-29 04:57:00,32.9,30.6,30.31,South,180,0.0,7.0,91,0.00,,,0.00,Weather View 32 v70,2013-03-29 09:57:00,
2013-03-29 05:03:00,32.5,30.7,30.31,South,180,0.0,7.0,93,0.00,,,0.00,Weather View 32 v70,2013-03-29 10:03:00,
2013-03-29 05:08:00,32.2,30.9,30.31,South,180,0.0,7.0,95,0.00,,,0.00,Weather View 32 v70,2013-03-29 10:08:00,
2013-03-29 05:13:00,31.9,30.6,30.31,South,180,1.0,6.0,95,0.00,,,0.00,Weather View 32 v70,2013-03-29 10:13:00,
2013-03-29 05:18:00,31.9,30.6,30.31,South,180,1.0,2.0,95,0.00,,,0.00,Weather View 32 v70,2013-03-29 10:18:00,
2013-03-29 05:23:00,31.8,30.5,30.31,South,180,0.0,2.0,95,0.00,,,0.00,Weather View 32 v70,2013-03-29 10:23:00,
2013-03-29 05:28:00,31.9,30.6,30.31,South,180,1.0,2.0,95,0.00,,,0.00,Weather View 32 v70,2013-03-29 10:28:00,
2013-03-29 05:33:00,31.7,30.4,30.31,South,180,0.0,2.0,95,0.00,,,0.00,Weather View 32 v70,2013-03-29 10:33:00,
2013-03-29 05:38:00,31.3,30.0,30.31,South,180,0.0,2.0,95,0.00,,,0.00,Weather View 32 v70,2013-03-29 10:38:00,
2013-03-29 05:43:00,30.9,29.4,30.31,South,180,0.0,2.0,94,0.00,,,0.00,Weather View 32 v70,2013-03-29 10:43:00,
2013-03-29 05:48:00,30.7,29.2,30.31,South,180,0.0,2.0,94,0.00,,,0.00,Weather View 32 v70,2013-03-29 10:48:00,
2013-03-29 05:53:00,30.1,28.6,30.31,South,180,0.0,2.0,94,0.00,,,0.00,Weather View 32 v70,2013-03-29 10:53:00,
2013-03-29 05:58:00,30.7,29.2,30.31,South,180,0.0,2.0,94,0.00,,,0.00,Weather View 32 v70,2013-03-29 10:58:00,
2013-03-29 06:03:00,30.9,29.4,30.31,South,180,0.0,2.0,94,0.00,,,0.00,Weather View 32 v70,2013-03-29 11:03:00,
2013-03-29 06:08:00,30.9,29.4,30.31,South,180,2.0,2.0,94,0.00,,,0.00,Weather View 32 v70,2013-03-29 11:08:00,
2013-03-29 06:13:00,31.1,29.8,30.31,South,180,0.0,2.0,95,0.00,,,0.00,Weather View 32 v70,2013-03-29 11:13:00,
2013-03-29 06:18:00,31.7,30.4,30.31,South,180,1.0,2.0,95,0.00,,,0.00,Weather View 32 v70,2013-03-29 11:18:00,
2013-03-29 06:23:00,32.3,31.0,30.31,South,180,0.0,2.0,95,0.00,,,0.00,Weather View 32 v70,2013-03-29 11:23:00,
2013-03-29 06:28:00,32.3,31.0,30.31,South,180,0.0,2.0,95,0.00,,,0.00,Weather View 32 v70,2013-03-29 11:28:00,
2013-03-29 06:33:00,32.7,31.4,30.31,SSE,157,2.0,2.0,95,0.00,,,0.00,Weather View 32 v70,2013-03-29 11:33:00,
2013-03-29 06:38:00,33.3,31.8,30.31,SE,135,1.0,2.0,94,0.00,,,0.00,Weather View 32 v70,2013-03-29 11:38:00,
2013-03-29 06:43:00,33.7,31.9,30.31,SE,135,1.0,2.0,93,0.00,,,0.00,Weather View 32 v70,2013-03-29 11:43:00,
2013-03-29 06:48:00,34.2,32.1,30.31,SE,135,1.0,2.0,92,0.00,,,0.00,Weather View 32 v70,2013-03-29 11:48:00,
2013-03-29 06:53:00,34.6,32.2,30.31,ESE,112,2.0,3.0,91,0.00,,,0.00,Weather View 32 v70,2013-03-29 11:53:00,
2013-03-29 06:58:00,34.9,32.3,30.31,ESE,112,1.0,3.0,90,0.00,,,0.00,Weather View 32 v70,2013-03-29 11:58:00,
2013-03-29 07:03:00,34.8,32.2,30.31,ESE,112,1.0,3.0,90,0.00,,,0.00,Weather View 32 v70,2013-03-29 12:03:00,
2013-03-29 07:08:00,35.2,32.3,30.31,SE,135,2.0,5.0,89,0.00,,,0.00,Weather View 32 v70,2013-03-29 12:08:00,
2013-03-29 07:13:00,35.5,32.3,30.31,ESE,112,1.0,5.0,88,0.00,,,0.00,Weather View 32 v70,2013-03-29 12:13:00,
2013-03-29 07:18:00,35.5,32.3,30.31,SE,135,1.0,5.0,88,0.00,,,0.00,Weather View 32 v70,2013-03-29 12:18:00,
2013-03-29 07:23:00,35.1,32.2,30.32,ESE,112,0.0,5.0,89,0.00,,,0.00,Weather View 32 v70,2013-03-29 12:23:00,
2013-03-29 07:28:00,34.3,32.2,30.32,SE,135,2.0,5.0,92,0.00,,,0.00,Weather View 32 v70,2013-03-29 12:28:00,
2013-03-29 07:33:00,34.2,32.1,30.32,SE,135,2.0,5.0,92,0.00,,,0.00,Weather View 32 v70,2013-03-29 12:33:00,
2013-03-29 07:39:00,33.7,31.9,30.32,SE,135,0.0,5.0,93,0.00,,,0.00,Weather View 32 v70,2013-03-29 12:39:00,
2013-03-29 07:44:00,32.9,31.4,30.32,SE,135,0.0,5.0,94,0.00,,,0.00,Weather View 32 v70,2013-03-29 12:44:00,
2013-03-29 07:49:00,32.4,31.1,30.33,SE,135,0.0,5.0,95,0.00,,,0.00,Weather View 32 v70,2013-03-29 12:49:00,
2013-03-29 07:54:00,31.8,30.5,30.33,SE,135,0.0,5.0,95,0.00,,,0.00,Weather View 32 v70,2013-03-29 12:54:00,
2013-03-29 07:59:00,31.5,30.2,30.33,SE,135,0.0,5.0,95,0.00,,,0.00,Weather View 32 v70,2013-03-29 12:59:00,
2013-03-29 08:04:00,31.3,30.0,30.33,SE,135,0.0,5.0,95,0.00,,,0.00,Weather View 32 v70,2013-03-29 13:04:00,
2013-03-29 08:09:00,31.9,30.6,30.33,SE,135,1.0,4.0,95,0.00,,,0.00,Weather View 32 v70,2013-03-29 13:09:00,
2013-03-29 08:14:00,32.5,31.2,30.33,SE,135,1.0,3.0,95,0.00,,,0.00,Weather View 32 v70,2013-03-29 13:14:00,
2013-03-29 08:19:00,33.1,31.8,30.33,SE,135,1.0,3.0,95,0.00,,,0.00,Weather View 32 v70,2013-03-29 13:19:00,
2013-03-29 08:24:00,33.7,32.4,30.33,SE,135,0.0,3.0,95,0.00,,,0.00,Weather View 32 v70,2013-03-29 13:24:00,
2013-03-29 08:29:00,33.6,31.8,30.33,SE,135,1.0,3.0,93,0.00,,,0.00,Weather View 32 v70,2013-03-29 13:29:00,
2013-03-29 08:34:00,33.9,32.4,30.33,SE,135,1.0,2.0,94,0.00,,,0.00,Weather View 32 v70,2013-03-29 13:34:00,
2013-03-29 08:39:00,34.8,33.2,30.33,SE,135,1.0,2.0,94,0.00,,,0.00,Weather View 32 v70,2013-03-29 13:39:00,
2013-03-29 08:44:00,35.9,34.1,30.33,SE,135,2.0,5.0,93,0.00,,,0.00,Weather View 32 v70,2013-03-29 13:44:00,
2013-03-29 08:49:00,37.3,34.9,30.33,SE,135,4.0,5.0,91,0.00,,,0.00,Weather View 32 v70,2013-03-29 13:49:00,
2013-03-29 08:54:00,38.5,35.0,30.34,SSE,157,2.0,6.0,87,0.00,,,0.00,Weather View 32 v70,2013-03-29 13:54:00,
2013-03-29 08:59:00,39.3,35.2,30.34,SE,135,2.0,6.0,85,0.00,,,0.00,Weather View 32 v70,2013-03-29 13:59:00,
2013-03-29 09:04:00,39.9,34.8,30.34,SE,135,6.0,9.0,82,0.00,,,0.00,Weather View 32 v70,2013-03-29 14:04:00,
2013-03-29 09:09:00,40.5,35.1,30.34,SE,135,2.0,9.0,81,0.00,,,0.00,Weather View 32 v70,2013-03-29 14:09:00,
2013-03-29 09:14:00,40.7,34.7,30.34,ESE,112,9.0,9.0,79,0.00,,,0.00,Weather View 32 v70,2013-03-29 14:14:00,
2013-03-29 09:19:00,41.1,35.1,30.34,SSE,157,2.0,9.0,79,0.00,,,0.00,Weather View 32 v70,2013-03-29 14:19:00,
2013-03-29 09:24:00,41.1,35.1,30.34,East,90,7.0,10.0,79,0.00,,,0.00,Weather View 32 v70,2013-03-29 14:24:00,
2013-03-29 09:29:00,41.4,35.0,30.35,SE,135,9.0,10.0,78,0.00,,,0.00,Weather View 32 v70,2013-03-29 14:29:00,
2013-03-29 09:34:00,41.6,35.2,30.35,ESE,112,4.0,11.0,78,0.00,,,0.00,Weather View 32 v70,2013-03-29 14:34:00,
2013-03-29 09:39:00,42.4,35.7,30.35,SE,135,6.0,11.0,77,0.00,,,0.00,Weather View 32 v70,2013-03-29 14:39:00,
2013-03-29 09:44:00,42.7,35.7,30.35,SE,135,2.0,11.0,76,0.00,,,0.00,Weather View 32 v70,2013-03-29 14:44:00,
2013-03-29 09:49:00,43.3,35.9,30.35,SSE,157,5.0,11.0,75,0.00,,,0.00,Weather View 32 v70,2013-03-29 14:49:00,
2013-03-29 09:54:00,43.7,36.3,30.35,SE,135,2.0,11.0,75,0.00,,,0.00,Weather View 32 v70,2013-03-29 14:54:00,
2013-03-29 09:59:00,43.8,36.0,30.35,SSW,202,6.0,11.0,74,0.00,,,0.00,Weather View 32 v70,2013-03-29 14:59:00,
2013-03-29 10:04:00,44.1,36.3,30.35,SE,135,7.0,11.0,74,0.00,,,0.00,Weather View 32 v70,2013-03-29 15:04:00,
2013-03-29 10:09:00,44.7,36.6,30.35,South,180,2.0,11.0,73,0.00,,,0.00,Weather View 32 v70,2013-03-29 15:09:00,
2013-03-29 10:14:00,45.4,36.5,30.35,SE,135,4.0,11.0,71,0.00,,,0.00,Weather View 32 v70,2013-03-29 15:14:00,
2013-03-29 10:19:00,45.8,36.6,30.35,East,90,6.0,11.0,70,0.00,,,0.00,Weather View 32 v70,2013-03-29 15:19:00,
2013-03-29 10:24:00,46.1,36.8,30.35,SE,135,7.0,12.0,70,0.00,,,0.00,Weather View 32 v70,2013-03-29 15:24:00,
2013-03-29 10:29:00,46.2,36.9,30.35,ESE,112,9.0,12.0,70,0.00,,,0.00,Weather View 32 v70,2013-03-29 15:29:00,
2013-03-29 10:35:00,46.7,37.1,30.35,SE,135,7.0,14.0,69,0.00,,,0.00,Weather View 32 v70,2013-03-29 15:35:00,
2013-03-29 10:40:00,46.9,37.2,30.35,SE,135,4.0,14.0,69,0.00,,,0.00,Weather View 32 v70,2013-03-29 15:40:00,
2013-03-29 10:45:00,47.4,37.7,30.35,SE,135,9.0,14.0,69,0.00,,,0.00,Weather View 32 v70,2013-03-29 15:45:00,
2013-03-29 10:50:00,47.9,37.8,30.35,ESE,112,6.0,14.0,68,0.00,,,0.00,Weather View 32 v70,2013-03-29 15:50:00,
2013-03-29 10:55:00,48.5,38.4,30.35,SE,135,4.0,16.0,68,0.00,,,0.00,Weather View 32 v70,2013-03-29 15:55:00,
2013-03-29 11:00:00,48.6,38.5,30.35,ESE,112,4.0,16.0,68,0.00,,,0.00,Weather View 32 v70,2013-03-29 16:00:00,
2013-03-29 11:05:00,49.2,38.7,30.35,South,180,2.0,16.0,67,0.00,,,0.00,Weather View 32 v70,2013-03-29 16:05:00,
2013-03-29 11:10:00,49.8,38.9,30.35,East,90,6.0,16.0,66,0.00,,,0.00,Weather View 32 v70,2013-03-29 16:10:00,
2013-03-29 11:15:00,50.3,39.0,30.35,SW,225,5.0,16.0,65,0.00,,,0.00,Weather View 32 v70,2013-03-29 16:15:00,
2013-03-29 11:20:00,50.9,39.1,30.35,East,90,6.0,16.0,64,0.00,,,0.00,Weather View 32 v70,2013-03-29 16:20:00,
2013-03-29 11:25:00,51.9,39.7,30.35,ESE,112,5.0,16.0,63,0.00,,,0.00,Weather View 32 v70,2013-03-29 16:25:00,
2013-03-29 11:30:00,52.4,39.7,30.35,SW,225,2.0,16.0,62,0.00,,,0.00,Weather View 32 v70,2013-03-29 16:30:00,
2013-03-29 11:35:00,52.9,39.8,30.35,ESE,112,4.0,16.0,61,0.00,,,0.00,Weather View 32 v70,2013-03-29 16:35:00,
2013-03-29 11:40:00,52.8,40.1,30.34,South,180,5.0,16.0,62,0.00,,,0.00,Weather View 32 v70,2013-03-29 16:40:00,
2013-03-29 11:45:00,53.2,40.1,30.34,South,180,4.0,16.0,61,0.00,,,0.00,Weather View 32 v70,2013-03-29 16:45:00,
2013-03-29 11:50:00,53.6,40.0,30.34,SE,135,7.0,16.0,60,0.00,,,0.00,Weather View 32 v70,2013-03-29 16:50:00,
2013-03-29 11:55:00,53.9,40.3,30.34,ESE,112,6.0,13.0,60,0.00,,,0.00,Weather View 32 v70,2013-03-29 16:55:00,
2013-03-29 12:00:00,54.4,40.3,30.33,East,90,9.0,13.0,59,0.00,,,0.00,Weather View 32 v70,2013-03-29 17:00:00,
2013-03-29 12:05:00,54.6,40.5,30.34,East,90,8.0,14.0,59,0.00,,,0.00,Weather View 32 v70,2013-03-29 17:05:00,
2013-03-29 12:10:00,55.9,40.4,30.34,South,180,2.0,14.0,56,0.00,,,0.00,Weather View 32 v70,2013-03-29 17:10:00,
2013-03-29 12:15:00,56.5,40.5,30.33,SE,135,4.0,14.0,55,0.00,,,0.00,Weather View 32 v70,2013-03-29 17:15:00,
2013-03-29 12:20:00,57.2,40.7,30.33,ESE,112,11.0,15.0,54,0.00,,,0.00,Weather View 32 v70,2013-03-29 17:20:00,
2013-03-29 12:25:00,56.6,40.6,30.33,ESE,112,7.0,15.0,55,0.00,,,0.00,Weather View 32 v70,2013-03-29 17:25:00,
2013-03-29 12:30:00,57.0,40.5,30.33,SE,135,6.0,15.0,54,0.00,,,0.00,Weather View 32 v70,2013-03-29 17:30:00,
2013-03-29 12:35:00,57.6,40.6,30.33,SE,135,10.0,15.0,53,0.00,,,0.00,Weather View 32 v70,2013-03-29 17:35:00,
2013-03-29 12:40:00,57.7,40.2,30.33,ESE,112,5.0,15.0,52,0.00,,,0.00,Weather View 32 v70,2013-03-29 17:40:00,
2013-03-29 12:45:00,58.6,41.0,30.33,ESE,112,8.0,15.0,52,0.00,,,0.00,Weather View 32 v70,2013-03-29 17:45:00,
2013-03-29 12:50:00,58.3,41.2,30.32,East,90,9.0,17.0,53,0.00,,,0.00,Weather View 32 v70,2013-03-29 17:50:00,
2013-03-29 12:55:00,58.2,40.6,30.32,ESE,112,12.0,17.0,52,0.00,,,0.00,Weather View 32 v70,2013-03-29 17:55:00,
2013-03-29 13:00:00,58.8,40.7,30.32,SE,135,13.0,18.0,51,0.00,,,0.00,Weather View 32 v70,2013-03-29 18:00:00,
2013-03-29 13:05:00,58.9,41.3,30.32,East,90,8.0,18.0,52,0.00,,,0.00,Weather View 32 v70,2013-03-29 18:05:00,
2013-03-29 13:10:00,59.0,40.9,30.32,SE,135,12.0,18.0,51,0.00,,,0.00,Weather View 32 v70,2013-03-29 18:10:00,
2013-03-29 13:15:00,59.3,40.6,30.31,ESE,112,12.0,18.0,50,0.00,,,0.00,Weather View 32 v70,2013-03-29 18:15:00,
2013-03-29 13:20:00,59.9,41.2,30.31,SE,135,12.0,18.0,50,0.00,,,0.00,Weather View 32 v70,2013-03-29 18:20:00,
2013-03-29 13:25:00,60.3,39.9,30.31,SW,225,2.0,18.0,47,0.00,,,0.00,Weather View 32 v70,2013-03-29 18:25:00,
2013-03-29 13:30:00,61.3,40.3,30.31,South,180,4.0,18.0,46,0.00,,,0.00,Weather View 32 v70,2013-03-29 18:30:00,
2013-03-29 13:35:00,61.5,36.9,30.31,East,90,1.0,18.0,40,0.00,,,0.00,Weather View 32 v70,2013-03-29 18:35:00,
2013-03-29 13:40:00,61.4,37.4,30.31,SSE,157,7.0,18.0,41,0.00,,,0.00,Weather View 32 v70,2013-03-29 18:40:00,
2013-03-29 13:45:00,61.5,36.3,30.30,ESE,112,12.0,18.0,39,0.00,,,0.00,Weather View 32 v70,2013-03-29 18:45:00,
2013-03-29 13:50:00,61.2,36.6,30.30,South,180,4.0,18.0,40,0.00,,,0.00,Weather View 32 v70,2013-03-29 18:50:00,
2013-03-29 13:55:00,61.7,37.1,30.30,SE,135,7.0,18.0,40,0.00,,,0.00,Weather View 32 v70,2013-03-29 18:55:00,
2013-03-29 14:00:00,62.2,37.5,30.30,South,180,9.0,18.0,40,0.00,,,0.00,Weather View 32 v70,2013-03-29 19:00:00,
2013-03-29 14:05:00,62.4,36.4,30.30,SSE,157,2.0,18.0,38,0.00,,,0.00,Weather View 32 v70,2013-03-29 19:05:00,
2013-03-29 14:10:00,62.6,37.9,30.29,SE,135,8.0,18.0,40,0.00,,,0.00,Weather View 32 v70,2013-03-29 19:10:00,
2013-03-29 14:15:00,62.7,36.7,30.29,SE,135,2.0,16.0,38,0.00,,,0.00,Weather View 32 v70,2013-03-29 19:15:00,
2013-03-29 14:20:00,62.9,38.2,30.29,East,90,10.0,16.0,40,0.00,,,0.00,Weather View 32 v70,2013-03-29 19:20:00,
2013-03-29 14:25:00,62.7,39.2,30.29,ESE,112,11.0,16.0,42,0.00,,,0.00,Weather View 32 v70,2013-03-29 19:25:00,
2013-03-29 14:30:00,63.0,37.6,30.29,SE,135,2.0,16.0,39,0.00,,,0.00,Weather View 32 v70,2013-03-29 19:30:00,
2013-03-29 14:35:00,63.3,36.5,30.28,SE,135,10.0,16.0,37,0.00,,,0.00,Weather View 32 v70,2013-03-29 19:35:00,
2013-03-29 14:40:00,63.4,37.3,30.28,SSE,157,6.0,17.0,38,0.00,,,0.00,Weather View 32 v70,2013-03-29 19:40:00,
2013-03-29 14:45:00,63.6,36.8,30.28,ESE,112,9.0,17.0,37,0.00,,,0.00,Weather View 32 v70,2013-03-29 19:45:00,
2013-03-29 14:50:00,63.6,38.1,30.28,SE,135,3.0,17.0,39,0.00,,,0.00,Weather View 32 v70,2013-03-29 19:50:00,
2013-03-29 14:55:00,63.4,38.0,30.28,SE,135,2.0,17.0,39,0.00,,,0.00,Weather View 32 v70,2013-03-29 19:55:00,
2013-03-29 15:00:00,63.4,38.0,30.28,SE,135,11.0,17.0,39,0.00,,,0.00,Weather View 32 v70,2013-03-29 20:00:00,
2013-03-29 15:05:00,64.2,38.0,30.27,SE,135,11.0,17.0,38,0.00,,,0.00,Weather View 32 v70,2013-03-29 20:05:00,
2013-03-29 15:10:00,63.7,37.6,30.27,SE,135,7.0,17.0,38,0.00,,,0.00,Weather View 32 v70,2013-03-29 20:10:00,
2013-03-29 15:15:00,63.6,38.1,30.27,ESE,112,8.0,20.0,39,0.00,,,0.00,Weather View 32 v70,2013-03-29 20:15:00,
2013-03-29 15:20:00,64.1,36.5,30.26,West,270,2.0,20.0,36,0.00,,,0.00,Weather View 32 v70,2013-03-29 20:20:00,
2013-03-29 15:25:00,64.2,37.3,30.26,SE,135,4.0,20.0,37,0.00,,,0.00,Weather View 32 v70,2013-03-29 20:25:00,
2013-03-29 15:30:00,64.2,38.0,30.26,East,90,2.0,20.0,38,0.00,,,0.00,Weather View 32 v70,2013-03-29 20:30:00,
2013-03-29 15:35:00,64.2,38.7,30.26,SE,135,4.0,20.0,39,0.00,,,0.00,Weather View 32 v70,2013-03-29 20:35:00,
2013-03-29 15:40:00,64.3,38.8,30.26,ESE,112,11.0,20.0,39,0.00,,,0.00,Weather View 32 v70,2013-03-29 20:40:00,
2013-03-29 15:45:00,64.4,38.2,30.26,SE,135,10.0,20.0,38,0.00,,,0.00,Weather View 32 v70,2013-03-29 20:45:00,
2013-03-29 15:50:00,64.3,38.1,30.26,SE,135,4.0,20.0,38,0.00,,,0.00,Weather View 32 v70,2013-03-29 20:50:00,
2013-03-29 15:55:00,65.7,36.5,30.26,ESE,112,10.0,20.0,34,0.00,,,0.00,Weather View 32 v70,2013-03-29 20:55:00,
2013-03-29 16:00:00,65.7,38.0,30.25,SE,135,6.0,20.0,36,0.00,,,0.00,Weather View 32 v70,2013-03-29 21:00:00,
2013-03-29 16:05:00,65.6,36.4,30.25,South,180,12.0,20.0,34,0.00,,,0.00,Weather View 32 v70,2013-03-29 21:05:00,
2013-03-29 16:10:00,65.3,35.4,30.25,SE,135,8.0,20.0,33,0.00,,,0.00,Weather View 32 v70,2013-03-29 21:10:00,
2013-03-29 16:15:00,65.5,34.8,30.25,SE,135,6.0,20.0,32,0.00,,,0.00,Weather View 32 v70,2013-03-29 21:15:00,
2013-03-29 16:20:00,65.6,34.9,30.25,SE,135,4.0,20.0,32,0.00,,,0.00,Weather View 32 v70,2013-03-29 21:20:00,
2013-03-29 16:25:00,65.4,35.5,30.24,SE,135,12.0,20.0,33,0.00,,,0.00,Weather View 32 v70,2013-03-29 21:25:00,
2013-03-29 16:30:00,65.5,35.6,30.24,SSE,157,7.0,20.0,33,0.00,,,0.00,Weather View 32 v70,2013-03-29 21:30:00,
2013-03-29 16:35:00,65.6,35.7,30.24,SE,135,2.0,20.0,33,0.00,,,0.00,Weather View 32 v70,2013-03-29 21:35:00,
2013-03-29 16:40:00,66.1,36.1,30.24,South,180,7.0,20.0,33,0.00,,,0.00,Weather View 32 v70,2013-03-29 21:40:00,
2013-03-29 16:45:00,65.9,35.9,30.24,SE,135,2.0,18.0,33,0.00,,,0.00,Weather View 32 v70,2013-03-29 21:45:00,
2013-03-29 16:50:00,66.6,35.7,30.24,SW,225,3.0,18.0,32,0.00,,,0.00,Weather View 32 v70,2013-03-29 21:50:00,
2013-03-29 16:55:00,66.7,35.8,30.24,South,180,5.0,18.0,32,0.00,,,0.00,Weather View 32 v70,2013-03-29 21:55:00,
2013-03-29 17:00:00,66.3,36.3,30.24,East,90,11.0,18.0,33,0.00,,,0.00,Weather View 32 v70,2013-03-29 22:00:00,
2013-03-29 17:05:00,66.7,35.8,30.24,NW,315,2.0,18.0,32,0.00,,,0.00,Weather View 32 v70,2013-03-29 22:05:00,
2013-03-29 17:10:00,66.3,36.3,30.24,South,180,4.0,18.0,33,0.00,,,0.00,Weather View 32 v70,2013-03-29 22:10:00,
2013-03-29 17:15:00,65.9,35.1,30.24,SE,135,3.0,18.0,32,0.00,,,0.00,Weather View 32 v70,2013-03-29 22:15:00,
2013-03-29 17:20:00,66.3,35.5,30.24,SSW,202,6.0,18.0,32,0.00,,,0.00,Weather View 32 v70,2013-03-29 22:20:00,
2013-03-29 17:25:00,66.3,35.5,30.24,ESE,112,2.0,17.0,32,0.00,,,0.00,Weather View 32 v70,2013-03-29 22:25:00,
2013-03-29 17:30:00,66.0,36.0,30.24,SSW,202,4.0,16.0,33,0.00,,,0.00,Weather View 32 v70,2013-03-29 22:30:00,
2013-03-29 17:35:00,66.5,37.2,30.24,SSW,202,6.0,16.0,34,0.00,,,0.00,Weather View 32 v70,2013-03-29 22:35:00,
2013-03-29 17:40:00,66.0,35.2,30.23,SSE,157,5.0,16.0,32,0.00,,,0.00,Weather View 32 v70,2013-03-29 22:40:00,
2013-03-29 17:45:00,65.9,35.1,30.23,SE,135,1.0,18.0,32,0.00,,,0.00,Weather View 32 v70,2013-03-29 22:45:00,
2013-03-29 17:50:00,66.3,35.5,30.23,South,180,5.0,18.0,32,0.00,,,0.00,Weather View 32 v70,2013-03-29 22:50:00,
2013-03-29 17:55:00,66.2,35.4,30.23,South,180,3.0,18.0,32,0.00,,,0.00,Weather View 32 v70,2013-03-29 22:55:00,
2013-03-29 18:00:00,65.8,35.1,30.23,SE,135,4.0,18.0,32,0.00,,,0.00,Weather View 32 v70,2013-03-29 23:00:00,
2013-03-29 18:05:00,66.0,35.2,30.23,East,90,6.0,18.0,32,0.00,,,0.00,Weather View 32 v70,2013-03-29 23:05:00,
2013-03-29 18:10:00,65.7,35.0,30.23,SE,135,4.0,18.0,32,0.00,,,0.00,Weather View 32 v70,2013-03-29 23:10:00,
2013-03-29 18:15:00,65.7,35.0,30.22,SE,135,4.0,18.0,32,0.00,,,0.00,Weather View 32 v70,2013-03-29 23:15:00,
2013-03-29 18:20:00,65.6,34.9,30.22,SE,135,5.0,18.0,32,0.00,,,0.00,Weather View 32 v70,2013-03-29 23:20:00,
2013-03-29 18:30:00,65.6,34.9,30.22,South,180,6.0,18.0,32,0.00,,,0.00,Weather View 32 v70,2013-03-29 23:30:00,
2013-03-29 18:35:00,65.8,35.1,30.22,SE,135,1.0,18.0,32,0.00,,,0.00,Weather View 32 v70,2013-03-29 23:35:00,
2013-03-29 18:40:00,65.3,34.6,30.22,SE,135,8.0,18.0,32,0.00,,,0.00,Weather View 32 v70,2013-03-29 23:40:00,
2013-03-29 18:45:00,64.8,34.2,30.22,SE,135,2.0,14.0,32,0.00,,,0.00,Weather View 32 v70,2013-03-29 23:45:00,
2013-03-29 18:50:00,64.3,34.5,30.21,SE,135,3.0,14.0,33,0.00,,,0.00,Weather View 32 v70,2013-03-29 23:50:00,
2013-03-29 18:55:00,63.9,34.9,30.21,ESE,112,3.0,14.0,34,0.00,,,0.00,Weather View 32 v70,2013-03-29 23:55:00,
2013-03-29 19:00:00,63.4,35.2,30.21,ESE,112,5.0,13.0,35,0.00,,,0.00,Weather View 32 v70,2013-03-30 00:00:00,
2013-03-29 19:05:00,63.2,35.7,30.21,SE,135,6.0,13.0,36,0.00,,,0.00,Weather View 32 v70,2013-03-30 00:05:00,
2013-03-29 19:10:00,62.9,35.5,30.20,SE,135,4.0,13.0,36,0.00,,,0.00,Weather View 32 v70,2013-03-30 00:10:00,
2013-03-29 19:15:00,62.7,35.3,30.20,SE,135,6.0,13.0,36,0.00,,,0.00,Weather View 32 v70,2013-03-30 00:15:00,
2013-03-29 19:20:00,62.6,35.2,30.20,SE,135,6.0,13.0,36,0.00,,,0.00,Weather View 32 v70,2013-03-30 00:20:00,
2013-03-29 19:25:00,62.3,35.6,30.20,ESE,112,6.0,13.0,37,0.00,,,0.00,Weather View 32 v70,2013-03-30 00:25:00,
2013-03-29 19:30:00,62.1,35.5,30.20,SE,135,5.0,13.0,37,0.00,,,0.00,Weather View 32 v70,2013-03-30 00:30:00,
2013-03-29 19:35:00,61.9,34.6,30.19,SE,135,6.0,13.0,36,0.00,,,0.00,Weather View 32 v70,2013-03-30 00:35:00,
2013-03-29 19:40:00,61.9,34.6,30.19,SSE,157,4.0,13.0,36,0.00,,,0.00,Weather View 32 v70,2013-03-30 00:40:00,
2013-03-29 19:45:00,61.6,34.3,30.19,SE,135,6.0,12.0,36,0.00,,,0.00,Weather View 32 v70,2013-03-30 00:45:00,
2013-03-29 19:50:00,61.5,34.2,30.19,SE,135,6.0,12.0,36,0.00,,,0.00,Weather View 32 v70,2013-03-30 00:50:00,
2013-03-29 19:55:00,61.3,34.7,30.19,ESE,112,7.0,12.0,37,0.00,,,0.00,Weather View 32 v70,2013-03-30 00:55:00,
2013-03-29 20:00:00,61.2,34.7,30.18,ESE,112,6.0,12.0,37,0.00,,,0.00,Weather View 32 v70,2013-03-30 01:00:00,
2013-03-29 20:05:00,60.9,35.1,30.18,ESE,112,4.0,12.0,38,0.00,,,0.00,Weather View 32 v70,2013-03-30 01:05:00,
2013-03-29 20:10:00,60.6,35.5,30.18,SE,135,6.0,12.0,39,0.00,,,0.00,Weather View 32 v70,2013-03-30 01:10:00,
2013-03-29 20:15:00,60.5,35.4,30.18,ESE,112,7.0,12.0,39,0.00,,,0.00,Weather View 32 v70,2013-03-30 01:15:00,
2013-03-29 20:20:00,60.4,35.9,30.18,ESE,112,8.0,16.0,40,0.00,,,0.00,Weather View 32 v70,2013-03-30 01:20:00,
2013-03-29 20:25:00,60.3,35.8,30.17,SE,135,5.0,16.0,40,0.00,,,0.00,Weather View 32 v70,2013-03-30 01:25:00,
2013-03-29 20:30:00,60.1,35.6,30.18,East,90,5.0,16.0,40,0.00,,,0.00,Weather View 32 v70,2013-03-30 01:30:00,
2013-03-29 20:35:00,60.1,35.6,30.17,ESE,112,4.0,16.0,40,0.00,,,0.00,Weather View 32 v70,2013-03-30 01:35:00,
2013-03-29 20:40:00,59.9,35.5,30.17,SE,135,6.0,16.0,40,0.00,,,0.00,Weather View 32 v70,2013-03-30 01:40:00,
2013-03-29 20:45:00,59.9,35.5,30.17,SE,135,4.0,16.0,40,0.00,,,0.00,Weather View 32 v70,2013-03-30 01:45:00,
2013-03-29 20:50:00,59.8,35.4,30.17,ESE,112,6.0,16.0,40,0.00,,,0.00,Weather View 32 v70,2013-03-30 01:50:00,
2013-03-29 20:55:00,59.8,34.7,30.17,SE,135,6.0,16.0,39,0.00,,,0.00,Weather View 32 v70,2013-03-30 01:55:00,
2013-03-29 21:00:00,59.7,35.3,30.17,ESE,112,5.0,16.0,40,0.00,,,0.00,Weather View 32 v70,2013-03-30 02:00:00,
2013-03-29 21:05:00,59.7,34.6,30.18,SE,135,11.0,16.0,39,0.00,,,0.00,Weather View 32 v70,2013-03-30 02:05:00,
2013-03-29 21:10:00,59.7,34.6,30.18,SE,135,10.0,16.0,39,0.00,,,0.00,Weather View 32 v70,2013-03-30 02:10:00,
2013-03-29 21:15:00,59.6,35.2,30.18,ESE,112,6.0,16.0,40,0.00,,,0.00,Weather View 32 v70,2013-03-30 02:15:00,
2013-03-29 21:20:00,59.4,35.0,30.18,SE,135,7.0,12.0,40,0.00,,,0.00,Weather View 32 v70,2013-03-30 02:20:00,
2013-03-29 21:25:00,59.3,34.9,30.18,ESE,112,7.0,12.0,40,0.00,,,0.00,Weather View 32 v70,2013-03-30 02:25:00,
2013-03-29 21:30:00,59.1,35.4,30.18,SE,135,4.0,12.0,41,0.00,,,0.00,Weather View 32 v70,2013-03-30 02:30:00,
2013-03-29 21:35:00,58.9,35.2,30.19,ESE,112,3.0,12.0,41,0.00,,,0.00,Weather View 32 v70,2013-03-30 02:35:00,
2013-03-29 21:40:00,58.9,35.2,30.19,SE,135,5.0,12.0,41,0.00,,,0.00,Weather View 32 v70,2013-03-30 02:40:00,
2013-03-29 21:45:00,58.7,35.6,30.20,SE,135,8.0,12.0,42,0.00,,,0.00,Weather View 32 v70,2013-03-30 02:45:00,
2013-03-29 21:50:00,58.5,35.4,30.20,SE,135,4.0,12.0,42,0.00,,,0.00,Weather View 32 v70,2013-03-30 02:50:00,
2013-03-29 21:55:00,58.5,35.4,30.20,SE,135,5.0,12.0,42,0.00,,,0.00,Weather View 32 v70,2013-03-30 02:55:00,
2013-03-29 22:00:00,58.4,35.3,30.21,SE,135,1.0,12.0,42,0.00,,,0.00,Weather View 32 v70,2013-03-30 03:00:00,
2013-03-29 22:05:00,58.1,35.7,30.21,SE,135,3.0,12.0,43,0.00,,,0.00,Weather View 32 v70,2013-03-30 03:05:00,
2013-03-29 22:10:00,57.8,35.4,30.21,SE,135,2.0,12.0,43,0.00,,,0.00,Weather View 32 v70,2013-03-30 03:10:00,
2013-03-29 22:15:00,57.7,35.3,30.21,ESE,112,4.0,12.0,43,0.00,,,0.00,Weather View 32 v70,2013-03-30 03:15:00,
2013-03-29 22:20:00,57.7,35.3,30.21,SE,135,3.0,11.0,43,0.00,,,0.00,Weather View 32 v70,2013-03-30 03:20:00,
2013-03-29 22:25:00,57.6,35.2,30.21,SE,135,4.0,11.0,43,0.00,,,0.00,Weather View 32 v70,2013-03-30 03:25:00,
2013-03-29 22:30:00,57.6,35.2,30.22,East,90,3.0,11.0,43,0.00,,,0.00,Weather View 32 v70,2013-03-30 03:30:00,
2013-03-29 22:35:00,57.3,36.1,30.21,ESE,112,6.0,11.0,45,0.00,,,0.00,Weather View 32 v70,2013-03-30 03:35:00,
2013-03-29 22:40:00,57.4,35.6,30.21,SE,135,3.0,11.0,44,0.00,,,0.00,Weather View 32 v70,2013-03-30 03:40:00,
2013-03-29 22:45:00,56.6,38.1,30.21,SSW,202,6.0,11.0,50,0.00,,,0.00,Weather View 32 v70,2013-03-30 03:45:00,
2013-03-29 22:50:00,56.1,36.6,30.22,SSW,202,7.0,11.0,48,0.00,,,0.00,Weather View 32 v70,2013-03-30 03:50:00,
2013-03-29 22:55:00,55.2,37.8,30.22,SW,225,2.0,10.0,52,0.00,,,0.00,Weather View 32 v70,2013-03-30 03:55:00,
2013-03-29 23:00:00,54.4,38.1,30.22,SSW,202,4.0,9.0,54,0.00,,,0.00,Weather View 32 v70,2013-03-30 04:00:00,
2013-03-29 23:05:00,53.4,38.5,30.21,SE,135,1.0,9.0,57,0.00,,,0.00,Weather View 32 v70,2013-03-30 04:05:00,
2013-03-29 23:10:00,52.7,38.7,30.20,South,180,3.0,9.0,59,0.00,,,0.00,Weather View 32 v70,2013-03-30 04:10:00,
2013-03-29 23:15:00,51.9,39.3,30.19,SSW,202,1.0,9.0,62,0.00,,,0.00,Weather View 32 v70,2013-03-30 04:15:00,
2013-03-29 23:21:00,52.0,37.2,30.18,SSW,202,4.0,9.0,57,0.00,,,0.00,Weather View 32 v70,2013-03-30 04:21:00,
2013-03-29 23:26:00,52.7,37.4,30.18,South,180,3.0,9.0,56,0.00,,,0.00,Weather View 32 v70,2013-03-30 04:26:00,
2013-03-29 23:31:00,53.6,37.3,30.18,SSW,202,6.0,9.0,54,0.00,,,0.00,Weather View 32 v70,2013-03-30 04:31:00,
2013-03-29 23:36:00,54.1,37.3,30.18,South,180,5.0,9.0,53,0.00,,,0.00,Weather View 32 v70,2013-03-30 04:36:00,
2013-03-29 23:41:00,53.9,38.1,30.18,SSW,202,2.0,9.0,55,0.00,,,0.00,Weather View 32 v70,2013-03-30 04:41:00,
2013-03-29 23:46:00,53.9,38.5,30.18,SW,225,6.0,9.0,56,0.00,,,0.00,Weather View 32 v70,2013-03-30 04:46:00,
2013-03-29 23:51:00,53.7,40.1,30.18,SW,225,5.0,9.0,60,0.00,,,0.00,Weather View 32 v70,2013-03-30 04:51:00,
2013-03-29 23:56:00,53.7,41.8,30.17,SW,225,4.0,9.0,64,0.00,,,0.00,Weather View 32 v70,2013-03-30 04:56:00,